createdAt,value
2023-04-14T00:04:55.481Z,-3.20
2023-04-14T00:09:59.746Z,-3.21
2023-04-14T00:15:03.779Z,-3.38
2023-04-14T00:20:09.210Z,-3.57
2023-04-14T00:25:13.385Z,-3.87
2023-04-14T00:30:17.570Z,-3.92
2023-04-14T00:35:22.164Z,-4.11
2023-04-14T00:40:27.528Z,-4.61
2023-04-14T00:45:32.146Z,-4.40
2023-04-14T00:50:36.222Z,-4.44
2023-04-14T00:55:42.123Z,-4.40
2023-04-14T01:00:46.900Z,-4.53
2023-04-14T01:05:51.873Z,-4.84
2023-04-14T01:11:39.003Z,-4.43
2023-04-14T01:16:46.006Z,-4.48
2023-04-14T01:21:57.841Z,-4.53
2023-04-14T01:27:19.898Z,-4.56
2023-04-14T01:32:27.225Z,-4.52
2023-04-14T01:37:42.177Z,-4.68
2023-04-14T01:42:53.699Z,-4.83
2023-04-14T01:47:59.297Z,-5.00
2023-04-14T01:53:07.464Z,-5.03
2023-04-14T01:58:12.518Z,-5.04
2023-04-14T02:03:20.677Z,-5.00
2023-04-14T02:08:25.383Z,-4.98
2023-04-14T02:13:32.087Z,-4.98
2023-04-14T02:18:56.051Z,-5.13
2023-04-14T02:24:01.110Z,-5.27
2023-04-14T02:29:15.196Z,-5.37
2023-04-14T02:34:26.313Z,-5.50
2023-04-14T02:39:42.826Z,-5.78
2023-04-14T02:44:52.702Z,-6.03
2023-04-14T02:50:00.735Z,-6.31
2023-04-14T02:55:08.556Z,-6.52
2023-04-14T03:00:15.882Z,-6.45
2023-04-14T03:05:26.416Z,-6.37
2023-04-14T03:10:41.900Z,-6.31
2023-04-14T03:15:50.063Z,-6.48
2023-04-14T03:20:56.722Z,-6.35
2023-04-14T03:26:03.774Z,-6.40
2023-04-14T03:31:11.173Z,-6.20
2023-04-14T03:36:24.338Z,-5.95
2023-04-14T03:41:35.268Z,-5.85
2023-04-14T03:46:39.401Z,-5.89
2023-04-14T03:51:46.512Z,-5.93
2023-04-14T03:56:52.439Z,-6.62
2023-04-14T04:01:57.114Z,-6.17
2023-04-14T04:07:01.546Z,-6.01
2023-04-14T04:12:06.794Z,-6.15
2023-04-14T04:17:17.066Z,-6.21
2023-04-14T04:22:23.988Z,-6.11
2023-04-14T04:27:30.207Z,-6.03
2023-04-14T04:32:43.100Z,-5.90
2023-04-14T04:37:50.746Z,-5.73
2023-04-14T04:42:54.670Z,-5.67
2023-04-14T04:47:58.794Z,-5.44
2023-04-14T04:53:02.905Z,-5.15
2023-04-14T04:58:06.777Z,-5.28
2023-04-14T05:03:10.749Z,-5.86
2023-04-14T05:08:15.398Z,-5.69
2023-04-14T05:13:20.438Z,-5.87
2023-04-14T05:18:24.304Z,-5.68
2023-04-14T05:23:28.344Z,-5.62
2023-04-14T05:28:32.642Z,-5.70
2023-04-14T05:33:36.853Z,-5.37
2023-04-14T05:38:41.013Z,-5.31
2023-04-14T05:43:44.825Z,-4.84
2023-04-14T05:48:48.801Z,-4.48
2023-04-14T05:53:52.794Z,-4.39
2023-04-14T05:58:56.927Z,-4.65
2023-04-14T06:04:01.309Z,-4.83
2023-04-14T06:09:05.705Z,-5.00
2023-04-14T06:14:10.825Z,-4.48
2023-04-14T06:19:15.364Z,-4.30
2023-04-14T06:24:19.639Z,-4.26
2023-04-14T06:30:19.481Z,-4.55
2023-04-14T06:36:00.574Z,-4.16
2023-04-14T06:41:04.423Z,-4.00
2023-04-14T06:46:08.370Z,-4.06
2023-04-14T06:51:13.153Z,-4.04
2023-04-14T06:56:17.547Z,-3.75
2023-04-14T07:01:21.682Z,-3.24
2023-04-14T07:06:25.659Z,-2.70
2023-04-14T07:11:31.152Z,-2.19
2023-04-14T07:16:35.020Z,-2.33
2023-04-14T07:21:38.963Z,-2.36
2023-04-14T07:26:45.052Z,-2.11
2023-04-14T07:31:49.005Z,-1.94
2023-04-14T07:36:53.138Z,-1.59
2023-04-14T07:41:59.261Z,-1.74
2023-04-14T07:47:03.246Z,-1.60
2023-04-14T07:52:07.124Z,-0.96
2023-04-14T07:57:11.660Z,0.67
2023-04-14T08:02:15.947Z,0.65
2023-04-14T08:07:20.908Z,0.12
2023-04-14T08:12:25.949Z,1.12
2023-04-14T08:17:29.874Z,2.29
2023-04-14T08:22:33.708Z,3.72
2023-04-14T08:27:38.111Z,2.40
2023-04-14T08:32:42.689Z,0.07
2023-04-14T08:37:46.853Z,-1.25
2023-04-14T08:42:52.950Z,-2.34
2023-04-14T08:47:59.066Z,-2.84
2023-04-14T08:53:04.909Z,-3.23
2023-04-14T08:58:11.605Z,-3.29
2023-04-14T09:03:16.085Z,-3.57
2023-04-14T09:08:21.153Z,-3.15
2023-04-14T09:13:28.540Z,-3.46
2023-04-14T09:18:34.453Z,-3.76
2023-04-14T09:23:43.457Z,-4.04
2023-04-14T09:28:48.071Z,-3.92
2023-04-14T09:33:53.685Z,-3.51
2023-04-14T09:38:57.859Z,-3.57
2023-04-14T09:44:11.119Z,-3.83
2023-04-14T09:49:15.554Z,-2.67
2023-04-14T09:54:27.238Z,0.30
2023-04-14T09:59:39.168Z,-0.75
2023-04-14T10:04:43.318Z,-2.67
2023-04-14T10:09:49.681Z,-3.70
2023-04-14T10:14:53.705Z,-4.31
2023-04-14T10:19:57.823Z,-4.67
2023-04-14T10:25:02.520Z,-4.50
2023-04-14T10:30:09.654Z,-4.78
2023-04-14T10:35:18.321Z,-4.93
2023-04-14T10:40:23.325Z,-5.13
2023-04-14T10:45:27.483Z,-5.31
2023-04-14T10:50:47.291Z,-5.43
2023-04-14T10:55:58.493Z,-5.59
2023-04-14T11:01:24.208Z,-5.61
2023-04-14T11:07:00.524Z,-5.28
2023-04-14T11:12:28.666Z,-5.48
2023-04-14T11:17:34.698Z,-5.74
2023-04-14T11:22:44.741Z,-5.85
2023-04-14T11:27:49.661Z,-5.96
2023-04-14T11:32:57.899Z,-6.06
2023-04-14T11:38:02.813Z,-6.14
2023-04-14T11:43:07.371Z,-6.15
2023-04-14T11:48:13.386Z,-6.22
2023-04-14T11:53:19.793Z,-6.20
2023-04-14T11:58:26.254Z,-6.05
2023-04-14T12:03:36.459Z,-6.20
2023-04-14T12:08:40.622Z,-6.46
2023-04-14T12:13:46.140Z,-6.56
2023-04-14T12:18:50.962Z,-6.66
2023-04-14T12:23:56.199Z,-6.92
2023-04-14T12:29:01.515Z,-6.82
2023-04-14T12:34:07.030Z,-6.96
2023-04-14T12:39:11.044Z,-7.12
2023-04-14T12:44:25.025Z,-7.25
2023-04-14T12:49:37.581Z,-7.40
2023-04-14T12:54:49.750Z,-7.52
2023-04-14T12:59:53.818Z,-7.59
2023-04-14T13:04:58.315Z,-7.66
2023-04-14T13:10:03.454Z,-7.75
2023-04-14T13:15:08.275Z,-7.85
2023-04-14T13:20:13.835Z,-8.01
2023-04-14T13:25:17.709Z,-8.21
2023-04-14T13:30:21.928Z,-8.17
2023-04-14T13:35:26.476Z,-8.27
2023-04-14T13:40:30.507Z,-8.30
2023-04-14T13:45:34.691Z,-8.32
2023-04-14T13:50:39.758Z,-8.47
2023-04-14T13:55:43.859Z,-8.46
2023-04-14T14:00:47.718Z,-8.50
2023-04-14T14:05:52.203Z,-8.62
2023-04-14T14:10:56.126Z,-8.68
2023-04-14T14:16:00.895Z,-8.78
2023-04-14T14:21:05.410Z,-8.85
2023-04-14T14:26:13.399Z,-8.97
2023-04-14T14:31:18.522Z,-8.92
2023-04-14T14:36:22.927Z,-8.92
2023-04-14T14:41:26.862Z,-9.08
2023-04-14T14:46:32.898Z,-9.00
2023-04-14T14:51:36.795Z,-9.10
2023-04-14T14:56:40.940Z,-9.20
2023-04-14T15:01:47.000Z,-9.24
2023-04-14T15:06:51.102Z,-9.29
2023-04-14T15:11:55.328Z,-9.38
2023-04-14T15:16:59.355Z,-9.41
2023-04-14T15:22:04.266Z,-9.48
2023-04-14T15:27:08.250Z,-9.53
2023-04-14T15:32:13.111Z,-9.63
2023-04-14T15:37:16.956Z,-9.64
2023-04-14T15:42:21.073Z,-9.71
2023-04-14T15:47:24.950Z,-9.82
2023-04-14T15:52:28.974Z,-9.89
2023-04-14T15:57:33.041Z,-9.95
2023-04-14T16:02:37.862Z,-9.99
2023-04-14T16:07:43.195Z,-10.06
2023-04-14T16:12:48.525Z,-10.11
2023-04-14T16:17:53.035Z,-10.17
2023-04-14T16:22:56.930Z,-10.22
2023-04-14T16:28:00.941Z,-10.27
2023-04-14T16:33:05.128Z,-10.85
2023-04-14T16:38:09.199Z,-10.36
2023-04-14T16:43:14.667Z,-10.38
2023-04-14T16:48:19.505Z,-10.46
2023-04-14T16:53:23.694Z,-10.55
2023-04-14T16:58:27.682Z,-10.55
2023-04-14T17:03:32.087Z,-10.62
2023-04-14T17:08:35.999Z,-10.62
2023-04-14T17:13:41.932Z,-10.68
2023-04-14T17:18:46.027Z,-10.70
2023-04-14T17:23:50.030Z,-10.71
2023-04-14T17:28:54.091Z,-10.68
2023-04-14T17:33:58.421Z,-10.66
2023-04-14T17:39:03.144Z,-10.63
2023-04-14T17:44:07.098Z,-10.52
2023-04-14T17:49:11.177Z,-10.46
2023-04-14T17:54:15.048Z,-10.50
2023-04-14T17:59:19.444Z,-10.47
2023-04-14T18:04:23.857Z,-10.38
2023-04-14T18:09:28.869Z,-10.44
2023-04-14T18:14:34.164Z,-10.37
2023-04-14T18:19:38.339Z,-10.34
2023-04-14T18:29:52.157Z,-10.32
2023-04-14T18:34:56.309Z,-10.30
2023-04-14T18:40:00.432Z,-10.29
2023-04-14T18:45:05.350Z,-10.31
2023-04-14T18:50:10.029Z,-10.29
2023-04-14T18:55:14.324Z,-10.33
2023-04-14T19:00:18.280Z,-10.41
2023-04-14T19:05:23.480Z,-10.40
2023-04-14T19:10:28.434Z,-10.44
2023-04-14T19:15:32.716Z,-10.57
2023-04-14T19:20:36.950Z,-10.80
2023-04-14T19:25:43.277Z,-10.76
2023-04-14T19:30:47.223Z,-10.90
2023-04-14T19:35:51.627Z,-11.49
2023-04-14T19:40:55.453Z,-11.04
2023-04-14T19:46:04.285Z,-11.08
2023-04-14T19:51:08.790Z,-11.19
2023-04-14T19:56:13.519Z,-11.32
2023-04-14T20:01:17.388Z,-11.76
2023-04-14T20:06:22.031Z,-11.46
2023-04-14T20:11:28.936Z,-11.51
2023-04-14T20:16:33.385Z,-11.60
2023-04-14T20:21:37.452Z,-11.64
2023-04-14T20:26:44.306Z,-11.69
2023-04-14T20:31:48.939Z,-11.77
2023-04-14T20:36:54.310Z,-11.85
2023-04-14T20:41:58.128Z,-11.97
2023-04-14T20:47:02.527Z,-11.94
2023-04-14T20:52:07.954Z,-12.12
2023-04-14T20:57:13.070Z,-12.06
2023-04-14T21:02:17.164Z,-12.23
2023-04-14T21:07:21.349Z,-12.24
2023-04-14T21:12:25.307Z,-12.28
2023-04-14T21:17:40.758Z,-12.36
2023-04-14T21:22:46.238Z,-12.45
2023-04-14T21:27:50.149Z,-12.58
2023-04-14T21:32:54.231Z,-12.56
2023-04-14T21:37:58.235Z,-12.60
2023-04-14T21:43:03.019Z,-12.76
2023-04-14T21:48:07.046Z,-12.76
2023-04-14T21:53:11.018Z,-12.69
2023-04-14T21:58:15.095Z,-12.69
2023-04-14T22:03:19.006Z,-12.67
2023-04-14T22:08:25.451Z,-12.71
2023-04-14T22:13:29.264Z,-12.85
2023-04-14T22:18:33.423Z,-12.88
2023-04-14T22:23:39.198Z,-12.95
2023-04-14T22:28:43.271Z,-13.50
2023-04-14T22:33:47.246Z,-13.20
2023-04-14T22:38:51.439Z,-13.19
2023-04-14T22:43:55.203Z,-13.32
2023-04-14T22:48:59.528Z,-13.37
2023-04-14T22:54:05.349Z,-13.45
2023-04-14T22:59:09.329Z,-13.50
2023-04-14T23:04:13.409Z,-13.62
2023-04-14T23:09:17.440Z,-13.68
2023-04-14T23:14:21.399Z,-13.82
2023-04-14T23:19:25.276Z,-13.81
2023-04-14T23:24:29.543Z,-13.95
2023-04-14T23:29:33.498Z,-13.86
2023-04-14T23:34:38.611Z,-13.86
2023-04-14T23:39:42.653Z,-13.86
2023-04-14T23:44:46.529Z,-13.71
2023-04-14T23:49:50.451Z,-13.60
2023-04-14T23:54:54.580Z,-13.46
2023-04-14T23:59:58.528Z,-13.10
